sensor_id;sensor_type;location;lat;lon;timestamp;temperature;humidity
43581;DHT22;29175;51.030;4.606;2024-02-04T00:02:13;10.50;99.90
43581;DHT22;29175;51.030;4.606;2024-02-04T00:04:40;10.50;99.90
43581;DHT22;29175;51.030;4.606;2024-02-04T00:07:07;10.60;99.90
43581;DHT22;29175;51.030;4.606;2024-02-04T00:09:32;10.50;99.90
43581;DHT22;29175;51.030;4.606;2024-02-04T00:11:58;10.50;99.90
43581;DHT22;29175;51.030;4.606;2024-02-04T00:14:27;10.60;99.90
43581;DHT22;29175;51.030;4.606;2024-02-04T00:16:53;10.60;99.90
43581;DHT22;29175;51.030;4.606;2024-02-04T00:19:18;10.60;99.90
43581;DHT22;29175;51.030;4.606;2024-02-04T00:21:44;10.60;99.90
43581;DHT22;29175;51.030;4.606;2024-02-04T00:24:10;10.50;99.90
43581;DHT22;29175;51.030;4.606;2024-02-04T00:26:35;10.50;99.90
43581;DHT22;29175;51.030;4.606;2024-02-04T00:29:03;10.50;99.90
43581;DHT22;29175;51.030;4.606;2024-02-04T00:31:29;10.50;99.90
43581;DHT22;29175;51.030;4.606;2024-02-04T00:33:56;10.50;99.90
43581;DHT22;29175;51.030;4.606;2024-02-04T00:36:24;10.50;99.90
43581;DHT22;29175;51.030;4.606;2024-02-04T00:38:52;10.50;99.90
43581;DHT22;29175;51.030;4.606;2024-02-04T00:41:17;10.50;99.90
43581;DHT22;29175;51.030;4.606;2024-02-04T00:43:43;10.50;99.90
43581;DHT22;29175;51.030;4.606;2024-02-04T00:46:15;10.50;99.90
43581;DHT22;29175;51.030;4.606;2024-02-04T00:48:42;10.50;99.90
43581;DHT22;29175;51.030;4.606;2024-02-04T00:51:10;10.50;99.90
43581;DHT22;29175;51.030;4.606;2024-02-04T00:53:37;10.50;99.90
43581;DHT22;29175;51.030;4.606;2024-02-04T00:56:03;10.50;99.90
43581;DHT22;29175;51.030;4.606;2024-02-04T00:58:29;10.50;99.90
43581;DHT22;29175;51.030;4.606;2024-02-04T01:00:55;10.60;99.90
43581;DHT22;29175;51.030;4.606;2024-02-04T01:03:21;10.50;99.90
43581;DHT22;29175;51.030;4.606;2024-02-04T01:05:48;10.50;99.90
43581;DHT22;29175;51.030;4.606;2024-02-04T01:08:14;10.50;99.90
43581;DHT22;29175;51.030;4.606;2024-02-04T01:10:41;10.50;99.90
43581;DHT22;29175;51.030;4.606;2024-02-04T01:13:07;10.50;99.90
43581;DHT22;29175;51.030;4.606;2024-02-04T01:15:34;10.50;99.90
43581;DHT22;29175;51.030;4.606;2024-02-04T01:18:00;10.50;99.90
43581;DHT22;29175;51.030;4.606;2024-02-04T01:20:26;10.50;99.90
43581;DHT22;29175;51.030;4.606;2024-02-04T01:22:52;10.60;99.90
43581;DHT22;29175;51.030;4.606;2024-02-04T01:25:18;10.60;99.90
43581;DHT22;29175;51.030;4.606;2024-02-04T01:27:43;10.50;99.90
43581;DHT22;29175;51.030;4.606;2024-02-04T01:30:11;10.50;99.90
43581;DHT22;29175;51.030;4.606;2024-02-04T01:32:38;10.60;99.90
43581;DHT22;29175;51.030;4.606;2024-02-04T01:35:03;10.50;99.90
43581;DHT22;29175;51.030;4.606;2024-02-04T01:37:29;10.50;99.90
43581;DHT22;29175;51.030;4.606;2024-02-04T01:39:55;10.50;99.90
43581;DHT22;29175;51.030;4.606;2024-02-04T01:42:22;10.50;99.90
43581;DHT22;29175;51.030;4.606;2024-02-04T01:44:50;10.60;99.90
43581;DHT22;29175;51.030;4.606;2024-02-04T01:47:18;10.60;99.90
43581;DHT22;29175;51.030;4.606;2024-02-04T01:49:45;10.60;99.90
43581;DHT22;29175;51.030;4.606;2024-02-04T01:52:12;10.60;99.90
43581;DHT22;29175;51.030;4.606;2024-02-04T01:54:38;10.60;99.90
43581;DHT22;29175;51.030;4.606;2024-02-04T01:57:05;10.60;99.90
43581;DHT22;29175;51.030;4.606;2024-02-04T01:59:34;10.60;99.90
43581;DHT22;29175;51.030;4.606;2024-02-04T02:02:06;10.60;99.90
43581;DHT22;29175;51.030;4.606;2024-02-04T02:04:36;10.60;99.90
43581;DHT22;29175;51.030;4.606;2024-02-04T02:07:08;10.70;99.90
43581;DHT22;29175;51.030;4.606;2024-02-04T02:09:42;10.60;99.90
43581;DHT22;29175;51.030;4.606;2024-02-04T02:12:22;10.60;99.90
43581;DHT22;29175;51.030;4.606;2024-02-04T02:15:23;10.60;99.90
43581;DHT22;29175;51.030;4.606;2024-02-04T02:18:01;10.60;99.90
43581;DHT22;29175;51.030;4.606;2024-02-04T02:20:55;10.60;99.90
43581;DHT22;29175;51.030;4.606;2024-02-04T02:23:22;10.60;99.90
43581;DHT22;29175;51.030;4.606;2024-02-04T02:25:52;10.60;99.90
43581;DHT22;29175;51.030;4.606;2024-02-04T02:28:18;10.50;99.90
43581;DHT22;29175;51.030;4.606;2024-02-04T02:30:44;10.60;99.90
43581;DHT22;29175;51.030;4.606;2024-02-04T02:33:09;10.60;99.90
43581;DHT22;29175;51.030;4.606;2024-02-04T02:35:38;10.60;99.90
43581;DHT22;29175;51.030;4.606;2024-02-04T02:40:58;10.70;99.90
43581;DHT22;29175;51.030;4.606;2024-02-04T02:43:26;10.70;99.90
43581;DHT22;29175;51.030;4.606;2024-02-04T02:45:53;10.80;99.90
43581;DHT22;29175;51.030;4.606;2024-02-04T02:48:21;10.70;99.90
43581;DHT22;29175;51.030;4.606;2024-02-04T02:50:50;10.70;99.90
43581;DHT22;29175;51.030;4.606;2024-02-04T02:53:17;10.70;99.90
43581;DHT22;29175;51.030;4.606;2024-02-04T02:55:46;10.70;99.90
43581;DHT22;29175;51.030;4.606;2024-02-04T02:58:12;10.80;99.90
43581;DHT22;29175;51.030;4.606;2024-02-04T03:00:37;10.80;99.90
43581;DHT22;29175;51.030;4.606;2024-02-04T03:03:04;10.80;99.90
43581;DHT22;29175;51.030;4.606;2024-02-04T03:05:31;10.80;99.90
43581;DHT22;29175;51.030;4.606;2024-02-04T03:07:57;10.80;99.90
43581;DHT22;29175;51.030;4.606;2024-02-04T03:10:22;10.70;99.90
43581;DHT22;29175;51.030;4.606;2024-02-04T03:12:49;10.70;99.90
43581;DHT22;29175;51.030;4.606;2024-02-04T03:15:16;10.80;99.90
43581;DHT22;29175;51.030;4.606;2024-02-04T03:17:45;10.70;99.90
43581;DHT22;29175;51.030;4.606;2024-02-04T03:22:40;10.70;99.90
43581;DHT22;29175;51.030;4.606;2024-02-04T03:25:06;10.70;99.90
43581;DHT22;29175;51.030;4.606;2024-02-04T03:27:32;10.70;99.90
43581;DHT22;29175;51.030;4.606;2024-02-04T03:29:58;10.80;99.90
43581;DHT22;29175;51.030;4.606;2024-02-04T03:32:25;10.80;99.90
43581;DHT22;29175;51.030;4.606;2024-02-04T03:34:51;10.70;99.90
43581;DHT22;29175;51.030;4.606;2024-02-04T03:37:16;10.80;99.90
43581;DHT22;29175;51.030;4.606;2024-02-04T03:39:43;10.80;99.90
43581;DHT22;29175;51.030;4.606;2024-02-04T03:42:09;10.70;99.90
43581;DHT22;29175;51.030;4.606;2024-02-04T03:44:35;10.70;99.90
43581;DHT22;29175;51.030;4.606;2024-02-04T03:47:02;10.60;99.90
43581;DHT22;29175;51.030;4.606;2024-02-04T03:49:29;10.60;99.90
43581;DHT22;29175;51.030;4.606;2024-02-04T03:51:54;10.60;99.90
43581;DHT22;29175;51.030;4.606;2024-02-04T03:54:20;10.70;99.90
43581;DHT22;29175;51.030;4.606;2024-02-04T03:56:46;10.60;99.90
43581;DHT22;29175;51.030;4.606;2024-02-04T03:59:13;10.70;99.90
43581;DHT22;29175;51.030;4.606;2024-02-04T04:01:39;10.70;99.90
43581;DHT22;29175;51.030;4.606;2024-02-04T04:04:05;10.80;99.90
43581;DHT22;29175;51.030;4.606;2024-02-04T04:06:33;10.70;99.90
43581;DHT22;29175;51.030;4.606;2024-02-04T04:08:59;10.60;99.90
43581;DHT22;29175;51.030;4.606;2024-02-04T04:11:26;10.60;99.90
43581;DHT22;29175;51.030;4.606;2024-02-04T04:13:52;10.60;99.90
43581;DHT22;29175;51.030;4.606;2024-02-04T04:16:20;10.60;99.90
43581;DHT22;29175;51.030;4.606;2024-02-04T04:18:46;10.60;99.90
43581;DHT22;29175;51.030;4.606;2024-02-04T04:21:14;10.50;99.90
43581;DHT22;29175;51.030;4.606;2024-02-04T04:23:40;10.60;99.90
43581;DHT22;29175;51.030;4.606;2024-02-04T04:26:07;10.60;99.90
43581;DHT22;29175;51.030;4.606;2024-02-04T04:28:33;10.60;99.90
43581;DHT22;29175;51.030;4.606;2024-02-04T04:30:58;10.60;99.90
43581;DHT22;29175;51.030;4.606;2024-02-04T04:33:25;10.60;99.90
43581;DHT22;29175;51.030;4.606;2024-02-04T04:35:51;10.60;99.90
43581;DHT22;29175;51.030;4.606;2024-02-04T04:38:19;10.60;99.90
43581;DHT22;29175;51.030;4.606;2024-02-04T04:40:45;10.60;99.90
43581;DHT22;29175;51.030;4.606;2024-02-04T04:43:11;10.60;99.90
43581;DHT22;29175;51.030;4.606;2024-02-04T04:45:37;10.60;99.90
43581;DHT22;29175;51.030;4.606;2024-02-04T04:48:03;10.70;99.90
43581;DHT22;29175;51.030;4.606;2024-02-04T04:50:31;10.70;99.90
43581;DHT22;29175;51.030;4.606;2024-02-04T04:52:56;10.70;99.90
43581;DHT22;29175;51.030;4.606;2024-02-04T04:55:22;10.80;99.90
43581;DHT22;29175;51.030;4.606;2024-02-04T04:57:49;10.80;99.90
43581;DHT22;29175;51.030;4.606;2024-02-04T05:00:15;10.80;99.90
43581;DHT22;29175;51.030;4.606;2024-02-04T05:02:41;10.70;99.90
43581;DHT22;29175;51.030;4.606;2024-02-04T05:05:10;10.70;99.90
43581;DHT22;29175;51.030;4.606;2024-02-04T05:07:36;10.70;99.90
43581;DHT22;29175;51.030;4.606;2024-02-04T05:10:02;10.70;99.90
43581;DHT22;29175;51.030;4.606;2024-02-04T05:12:28;10.70;99.90
43581;DHT22;29175;51.030;4.606;2024-02-04T05:14:53;10.60;99.90
43581;DHT22;29175;51.030;4.606;2024-02-04T05:17:20;10.70;99.90
43581;DHT22;29175;51.030;4.606;2024-02-04T05:19:47;10.70;99.90
43581;DHT22;29175;51.030;4.606;2024-02-04T05:22:12;10.60;99.90
43581;DHT22;29175;51.030;4.606;2024-02-04T05:24:38;10.70;99.90
43581;DHT22;29175;51.030;4.606;2024-02-04T05:27:04;10.70;99.90
43581;DHT22;29175;51.030;4.606;2024-02-04T05:29:30;10.60;99.90
43581;DHT22;29175;51.030;4.606;2024-02-04T05:31:56;10.60;99.90
43581;DHT22;29175;51.030;4.606;2024-02-04T05:34:22;10.60;99.90
43581;DHT22;29175;51.030;4.606;2024-02-04T05:36:50;10.60;99.90
43581;DHT22;29175;51.030;4.606;2024-02-04T05:39:16;10.50;99.90
43581;DHT22;29175;51.030;4.606;2024-02-04T05:41:42;10.50;99.90
43581;DHT22;29175;51.030;4.606;2024-02-04T05:44:08;10.50;99.90
43581;DHT22;29175;51.030;4.606;2024-02-04T05:46:35;10.50;99.90
43581;DHT22;29175;51.030;4.606;2024-02-04T05:49:02;10.60;99.90
43581;DHT22;29175;51.030;4.606;2024-02-04T05:51:31;10.60;99.90
43581;DHT22;29175;51.030;4.606;2024-02-04T05:53:56;10.60;99.90
43581;DHT22;29175;51.030;4.606;2024-02-04T05:56:23;10.60;99.90
43581;DHT22;29175;51.030;4.606;2024-02-04T05:58:49;10.60;99.90
43581;DHT22;29175;51.030;4.606;2024-02-04T06:01:16;10.60;99.90
43581;DHT22;29175;51.030;4.606;2024-02-04T06:03:42;10.50;99.90
43581;DHT22;29175;51.030;4.606;2024-02-04T06:06:09;10.60;99.90
43581;DHT22;29175;51.030;4.606;2024-02-04T06:08:34;10.60;99.90
43581;DHT22;29175;51.030;4.606;2024-02-04T06:11:01;10.70;99.90
43581;DHT22;29175;51.030;4.606;2024-02-04T06:13:27;10.60;99.90
43581;DHT22;29175;51.030;4.606;2024-02-04T06:15:54;10.60;99.90
43581;DHT22;29175;51.030;4.606;2024-02-04T06:18:23;10.70;99.90
43581;DHT22;29175;51.030;4.606;2024-02-04T06:20:48;10.70;99.90
43581;DHT22;29175;51.030;4.606;2024-02-04T06:23:14;10.70;99.90
43581;DHT22;29175;51.030;4.606;2024-02-04T06:25:41;10.60;99.90
43581;DHT22;29175;51.030;4.606;2024-02-04T06:28:08;10.70;99.90
43581;DHT22;29175;51.030;4.606;2024-02-04T06:30:34;10.70;99.90
43581;DHT22;29175;51.030;4.606;2024-02-04T06:33:01;10.70;99.90
43581;DHT22;29175;51.030;4.606;2024-02-04T06:35:28;10.70;99.90
43581;DHT22;29175;51.030;4.606;2024-02-04T06:37:53;10.70;99.90
43581;DHT22;29175;51.030;4.606;2024-02-04T06:40:19;10.70;99.90
43581;DHT22;29175;51.030;4.606;2024-02-04T06:42:45;10.60;99.90
43581;DHT22;29175;51.030;4.606;2024-02-04T06:45:11;10.60;99.90
43581;DHT22;29175;51.030;4.606;2024-02-04T06:47:37;10.70;99.90
43581;DHT22;29175;51.030;4.606;2024-02-04T06:50:03;10.60;99.90
43581;DHT22;29175;51.030;4.606;2024-02-04T06:52:31;10.50;99.90
43581;DHT22;29175;51.030;4.606;2024-02-04T06:54:56;10.60;99.90
43581;DHT22;29175;51.030;4.606;2024-02-04T06:57:22;10.50;99.90
43581;DHT22;29175;51.030;4.606;2024-02-04T06:59:48;10.60;99.90
43581;DHT22;29175;51.030;4.606;2024-02-04T07:02:13;10.60;99.90
43581;DHT22;29175;51.030;4.606;2024-02-04T07:04:39;10.60;99.90
43581;DHT22;29175;51.030;4.606;2024-02-04T07:07:06;10.60;99.90
43581;DHT22;29175;51.030;4.606;2024-02-04T07:09:31;10.70;99.90
43581;DHT22;29175;51.030;4.606;2024-02-04T07:11:57;10.70;99.90
43581;DHT22;29175;51.030;4.606;2024-02-04T07:14:22;10.70;99.90
43581;DHT22;29175;51.030;4.606;2024-02-04T07:16:48;10.70;99.90
43581;DHT22;29175;51.030;4.606;2024-02-04T07:19:14;10.60;99.90
43581;DHT22;29175;51.030;4.606;2024-02-04T07:21:39;10.60;99.90
43581;DHT22;29175;51.030;4.606;2024-02-04T07:24:05;10.60;99.90
43581;DHT22;29175;51.030;4.606;2024-02-04T07:26:32;10.60;99.90
43581;DHT22;29175;51.030;4.606;2024-02-04T07:28:57;10.60;99.90
43581;DHT22;29175;51.030;4.606;2024-02-04T07:31:23;10.60;99.90
43581;DHT22;29175;51.030;4.606;2024-02-04T07:33:52;10.50;99.90
43581;DHT22;29175;51.030;4.606;2024-02-04T07:36:18;10.60;99.90
43581;DHT22;29175;51.030;4.606;2024-02-04T07:38:44;10.60;99.90
43581;DHT22;29175;51.030;4.606;2024-02-04T07:41:13;10.70;99.90
43581;DHT22;29175;51.030;4.606;2024-02-04T07:43:38;10.70;99.90
43581;DHT22;29175;51.030;4.606;2024-02-04T07:46:05;10.60;99.90
43581;DHT22;29175;51.030;4.606;2024-02-04T07:48:32;10.60;99.90
43581;DHT22;29175;51.030;4.606;2024-02-04T07:50:59;10.70;99.90
43581;DHT22;29175;51.030;4.606;2024-02-04T07:53:25;10.70;99.90
43581;DHT22;29175;51.030;4.606;2024-02-04T07:55:50;10.70;99.90
43581;DHT22;29175;51.030;4.606;2024-02-04T07:58:16;10.70;99.90
43581;DHT22;29175;51.030;4.606;2024-02-04T08:03:10;10.70;99.90
43581;DHT22;29175;51.030;4.606;2024-02-04T08:05:36;10.70;99.90
43581;DHT22;29175;51.030;4.606;2024-02-04T08:08:02;10.70;99.90
43581;DHT22;29175;51.030;4.606;2024-02-04T08:10:27;10.80;99.90
43581;DHT22;29175;51.030;4.606;2024-02-04T08:12:55;10.80;99.90
43581;DHT22;29175;51.030;4.606;2024-02-04T08:15:21;10.80;99.90
43581;DHT22;29175;51.030;4.606;2024-02-04T08:17:46;10.80;99.90
43581;DHT22;29175;51.030;4.606;2024-02-04T08:20:12;10.80;99.90
43581;DHT22;29175;51.030;4.606;2024-02-04T08:22:38;10.80;99.90
43581;DHT22;29175;51.030;4.606;2024-02-04T08:25:04;10.80;99.90
43581;DHT22;29175;51.030;4.606;2024-02-04T08:27:31;10.70;99.90
43581;DHT22;29175;51.030;4.606;2024-02-04T08:29:56;10.70;99.90
43581;DHT22;29175;51.030;4.606;2024-02-04T08:32:22;10.80;99.90
43581;DHT22;29175;51.030;4.606;2024-02-04T08:34:48;10.90;99.90
43581;DHT22;29175;51.030;4.606;2024-02-04T08:37:15;10.90;99.90
43581;DHT22;29175;51.030;4.606;2024-02-04T08:39:42;11.00;99.90
43581;DHT22;29175;51.030;4.606;2024-02-04T08:42:07;11.00;99.90
43581;DHT22;29175;51.030;4.606;2024-02-04T08:44:33;11.00;99.90
43581;DHT22;29175;51.030;4.606;2024-02-04T08:46:59;11.00;99.90
43581;DHT22;29175;51.030;4.606;2024-02-04T08:49:25;10.90;99.90
43581;DHT22;29175;51.030;4.606;2024-02-04T08:51:50;11.00;99.90
43581;DHT22;29175;51.030;4.606;2024-02-04T08:54:17;10.80;99.90
43581;DHT22;29175;51.030;4.606;2024-02-04T08:59:13;11.10;99.90
43581;DHT22;29175;51.030;4.606;2024-02-04T09:01:39;11.10;99.90
43581;DHT22;29175;51.030;4.606;2024-02-04T09:04:04;11.20;99.90
43581;DHT22;29175;51.030;4.606;2024-02-04T09:06:31;11.30;99.90
43581;DHT22;29175;51.030;4.606;2024-02-04T09:08:57;11.40;99.90
43581;DHT22;29175;51.030;4.606;2024-02-04T09:11:23;11.40;99.90
43581;DHT22;29175;51.030;4.606;2024-02-04T09:13:52;11.40;99.90
43581;DHT22;29175;51.030;4.606;2024-02-04T09:16:19;11.40;99.90
43581;DHT22;29175;51.030;4.606;2024-02-04T09:18:45;11.40;99.90
43581;DHT22;29175;51.030;4.606;2024-02-04T09:21:13;11.40;99.90
43581;DHT22;29175;51.030;4.606;2024-02-04T09:23:40;11.40;99.90
43581;DHT22;29175;51.030;4.606;2024-02-04T09:26:06;11.50;99.90
43581;DHT22;29175;51.030;4.606;2024-02-04T09:28:31;11.50;99.90
43581;DHT22;29175;51.030;4.606;2024-02-04T09:30:58;11.40;99.90
43581;DHT22;29175;51.030;4.606;2024-02-04T09:33:24;11.40;99.90
43581;DHT22;29175;51.030;4.606;2024-02-04T09:35:50;11.40;99.90
43581;DHT22;29175;51.030;4.606;2024-02-04T09:38:16;11.30;99.90
43581;DHT22;29175;51.030;4.606;2024-02-04T09:40:41;11.30;99.90
43581;DHT22;29175;51.030;4.606;2024-02-04T09:43:08;11.30;99.90
43581;DHT22;29175;51.030;4.606;2024-02-04T09:45:33;11.30;99.90
43581;DHT22;29175;51.030;4.606;2024-02-04T09:48:00;11.40;99.90
43581;DHT22;29175;51.030;4.606;2024-02-04T09:50:26;11.50;99.90
43581;DHT22;29175;51.030;4.606;2024-02-04T09:52:52;11.60;99.90
43581;DHT22;29175;51.030;4.606;2024-02-04T09:55:19;11.50;99.90
43581;DHT22;29175;51.030;4.606;2024-02-04T09:57:46;11.50;99.90
43581;DHT22;29175;51.030;4.606;2024-02-04T10:00:12;11.50;99.90
43581;DHT22;29175;51.030;4.606;2024-02-04T10:02:38;11.50;99.90
43581;DHT22;29175;51.030;4.606;2024-02-04T10:05:04;11.50;99.90
43581;DHT22;29175;51.030;4.606;2024-02-04T10:07:30;11.60;99.90
43581;DHT22;29175;51.030;4.606;2024-02-04T10:09:56;11.50;99.90
43581;DHT22;29175;51.030;4.606;2024-02-04T10:12:22;11.50;99.90
43581;DHT22;29175;51.030;4.606;2024-02-04T10:14:48;11.50;99.90
43581;DHT22;29175;51.030;4.606;2024-02-04T10:17:15;11.60;99.90
43581;DHT22;29175;51.030;4.606;2024-02-04T10:19:40;11.60;99.90
43581;DHT22;29175;51.030;4.606;2024-02-04T10:22:06;11.60;99.90
43581;DHT22;29175;51.030;4.606;2024-02-04T10:24:31;11.60;99.90
43581;DHT22;29175;51.030;4.606;2024-02-04T10:26:57;11.60;99.90
43581;DHT22;29175;51.030;4.606;2024-02-04T10:29:23;11.70;99.90
43581;DHT22;29175;51.030;4.606;2024-02-04T10:31:53;11.70;99.90
43581;DHT22;29175;51.030;4.606;2024-02-04T10:34:19;11.70;99.90
43581;DHT22;29175;51.030;4.606;2024-02-04T10:36:45;11.70;99.90
43581;DHT22;29175;51.030;4.606;2024-02-04T10:39:10;11.80;99.90
43581;DHT22;29175;51.030;4.606;2024-02-04T10:41:36;11.90;99.90
43581;DHT22;29175;51.030;4.606;2024-02-04T10:44:05;12.00;99.90
43581;DHT22;29175;51.030;4.606;2024-02-04T10:46:31;12.00;99.90
43581;DHT22;29175;51.030;4.606;2024-02-04T10:49:00;12.20;99.90
43581;DHT22;29175;51.030;4.606;2024-02-04T10:51:27;12.20;99.90
43581;DHT22;29175;51.030;4.606;2024-02-04T10:53:55;12.30;99.90
43581;DHT22;29175;51.030;4.606;2024-02-04T10:56:30;12.40;99.90
43581;DHT22;29175;51.030;4.606;2024-02-04T10:58:57;12.40;99.90
43581;DHT22;29175;51.030;4.606;2024-02-04T11:01:27;12.30;99.90
43581;DHT22;29175;51.030;4.606;2024-02-04T11:03:53;12.60;99.90
43581;DHT22;29175;51.030;4.606;2024-02-04T11:06:23;12.60;99.90
43581;DHT22;29175;51.030;4.606;2024-02-04T11:08:53;12.60;99.90
43581;DHT22;29175;51.030;4.606;2024-02-04T11:11:21;12.50;99.90
43581;DHT22;29175;51.030;4.606;2024-02-04T11:13:49;12.40;99.90
43581;DHT22;29175;51.030;4.606;2024-02-04T11:19:19;12.20;99.90
43581;DHT22;29175;51.030;4.606;2024-02-04T11:22:08;12.30;99.90
43581;DHT22;29175;51.030;4.606;2024-02-04T11:26:57;12.30;99.90
43581;DHT22;29175;51.030;4.606;2024-02-04T11:29:23;12.20;99.90
43581;DHT22;29175;51.030;4.606;2024-02-04T11:31:50;12.20;99.90
43581;DHT22;29175;51.030;4.606;2024-02-04T11:34:16;12.20;99.90
43581;DHT22;29175;51.030;4.606;2024-02-04T11:36:44;12.20;99.90
43581;DHT22;29175;51.030;4.606;2024-02-04T11:39:13;12.20;99.90
43581;DHT22;29175;51.030;4.606;2024-02-04T11:41:47;12.20;99.90
43581;DHT22;29175;51.030;4.606;2024-02-04T11:44:23;12.20;99.90
43581;DHT22;29175;51.030;4.606;2024-02-04T11:46:49;12.30;99.90
43581;DHT22;29175;51.030;4.606;2024-02-04T11:49:16;12.20;99.90
43581;DHT22;29175;51.030;4.606;2024-02-04T11:51:46;12.20;99.90
43581;DHT22;29175;51.030;4.606;2024-02-04T11:54:16;12.20;99.90
43581;DHT22;29175;51.030;4.606;2024-02-04T11:56:44;12.20;99.90
43581;DHT22;29175;51.030;4.606;2024-02-04T11:59:11;12.30;99.90
43581;DHT22;29175;51.030;4.606;2024-02-04T12:01:37;12.30;99.90
43581;DHT22;29175;51.030;4.606;2024-02-04T12:04:11;12.30;99.90
43581;DHT22;29175;51.030;4.606;2024-02-04T12:06:37;12.40;99.90
43581;DHT22;29175;51.030;4.606;2024-02-04T12:09:03;12.50;99.90
43581;DHT22;29175;51.030;4.606;2024-02-04T12:11:29;12.60;99.90
43581;DHT22;29175;51.030;4.606;2024-02-04T12:13:55;12.60;99.90
43581;DHT22;29175;51.030;4.606;2024-02-04T12:16:21;12.50;99.90
43581;DHT22;29175;51.030;4.606;2024-02-04T12:18:47;12.50;99.90
43581;DHT22;29175;51.030;4.606;2024-02-04T12:21:13;12.50;99.90
43581;DHT22;29175;51.030;4.606;2024-02-04T12:23:39;12.40;99.90
43581;DHT22;29175;51.030;4.606;2024-02-04T12:26:05;12.50;99.90
43581;DHT22;29175;51.030;4.606;2024-02-04T12:28:31;12.40;99.90
43581;DHT22;29175;51.030;4.606;2024-02-04T12:30:56;12.30;99.90
43581;DHT22;29175;51.030;4.606;2024-02-04T12:33:24;12.30;99.90
43581;DHT22;29175;51.030;4.606;2024-02-04T12:35:50;12.30;99.90
43581;DHT22;29175;51.030;4.606;2024-02-04T12:38:16;12.40;99.90
43581;DHT22;29175;51.030;4.606;2024-02-04T12:40:43;12.50;99.90
43581;DHT22;29175;51.030;4.606;2024-02-04T12:43:10;12.50;99.90
43581;DHT22;29175;51.030;4.606;2024-02-04T12:45:36;12.30;99.90
43581;DHT22;29175;51.030;4.606;2024-02-04T12:48:03;12.20;99.90
43581;DHT22;29175;51.030;4.606;2024-02-04T12:50:29;12.10;99.90
43581;DHT22;29175;51.030;4.606;2024-02-04T12:53:04;12.10;99.90
43581;DHT22;29175;51.030;4.606;2024-02-04T12:55:36;12.10;99.90
43581;DHT22;29175;51.030;4.606;2024-02-04T12:58:11;12.20;99.90
43581;DHT22;29175;51.030;4.606;2024-02-04T13:00:43;12.30;99.90
43581;DHT22;29175;51.030;4.606;2024-02-04T13:03:10;12.30;99.90
43581;DHT22;29175;51.030;4.606;2024-02-04T13:05:37;12.20;99.90
43581;DHT22;29175;51.030;4.606;2024-02-04T13:08:03;12.20;99.90
43581;DHT22;29175;51.030;4.606;2024-02-04T13:10:32;12.20;99.90
43581;DHT22;29175;51.030;4.606;2024-02-04T13:13:03;12.10;99.90
43581;DHT22;29175;51.030;4.606;2024-02-04T13:15:31;12.10;99.90
43581;DHT22;29175;51.030;4.606;2024-02-04T13:17:57;12.10;99.90
43581;DHT22;29175;51.030;4.606;2024-02-04T13:20:23;12.00;99.90
43581;DHT22;29175;51.030;4.606;2024-02-04T13:22:49;12.00;99.90
43581;DHT22;29175;51.030;4.606;2024-02-04T13:25:15;12.20;99.90
43581;DHT22;29175;51.030;4.606;2024-02-04T13:27:41;12.10;99.90
43581;DHT22;29175;51.030;4.606;2024-02-04T13:30:08;12.10;99.90
43581;DHT22;29175;51.030;4.606;2024-02-04T13:32:40;12.20;99.90
43581;DHT22;29175;51.030;4.606;2024-02-04T13:35:07;12.30;99.90
43581;DHT22;29175;51.030;4.606;2024-02-04T13:37:45;12.20;99.90
43581;DHT22;29175;51.030;4.606;2024-02-04T13:40:16;12.20;99.90
43581;DHT22;29175;51.030;4.606;2024-02-04T13:42:43;12.10;99.90
43581;DHT22;29175;51.030;4.606;2024-02-04T13:45:10;12.10;99.90
43581;DHT22;29175;51.030;4.606;2024-02-04T13:47:36;12.10;99.90
43581;DHT22;29175;51.030;4.606;2024-02-04T13:50:02;12.10;99.90
43581;DHT22;29175;51.030;4.606;2024-02-04T13:52:28;12.10;99.90
43581;DHT22;29175;51.030;4.606;2024-02-04T13:54:55;12.10;99.90
43581;DHT22;29175;51.030;4.606;2024-02-04T13:57:21;12.10;99.90
43581;DHT22;29175;51.030;4.606;2024-02-04T13:59:48;12.10;99.90
43581;DHT22;29175;51.030;4.606;2024-02-04T14:02:13;12.20;99.90
43581;DHT22;29175;51.030;4.606;2024-02-04T14:04:39;12.20;99.90
43581;DHT22;29175;51.030;4.606;2024-02-04T14:07:05;12.20;99.90
43581;DHT22;29175;51.030;4.606;2024-02-04T14:09:31;12.20;99.90
43581;DHT22;29175;51.030;4.606;2024-02-04T14:11:57;12.20;99.90
43581;DHT22;29175;51.030;4.606;2024-02-04T14:14:24;12.30;99.90
43581;DHT22;29175;51.030;4.606;2024-02-04T14:16:50;12.30;99.90
43581;DHT22;29175;51.030;4.606;2024-02-04T14:19:17;12.30;99.90
43581;DHT22;29175;51.030;4.606;2024-02-04T14:21:45;12.30;99.90
43581;DHT22;29175;51.030;4.606;2024-02-04T14:24:14;12.30;99.90
43581;DHT22;29175;51.030;4.606;2024-02-04T14:26:41;12.20;99.90
43581;DHT22;29175;51.030;4.606;2024-02-04T14:29:08;12.30;99.90
43581;DHT22;29175;51.030;4.606;2024-02-04T14:31:35;12.30;99.90
43581;DHT22;29175;51.030;4.606;2024-02-04T14:34:01;12.30;99.90
43581;DHT22;29175;51.030;4.606;2024-02-04T14:36:27;12.40;99.90
43581;DHT22;29175;51.030;4.606;2024-02-04T14:38:55;12.40;99.90
43581;DHT22;29175;51.030;4.606;2024-02-04T14:41:22;12.50;99.90
43581;DHT22;29175;51.030;4.606;2024-02-04T14:43:49;12.60;99.90
43581;DHT22;29175;51.030;4.606;2024-02-04T14:46:17;12.70;99.90
43581;DHT22;29175;51.030;4.606;2024-02-04T14:48:42;12.70;99.90
43581;DHT22;29175;51.030;4.606;2024-02-04T14:51:09;12.60;99.90
43581;DHT22;29175;51.030;4.606;2024-02-04T14:53:36;12.60;99.90
43581;DHT22;29175;51.030;4.606;2024-02-04T14:56:02;12.60;99.90
43581;DHT22;29175;51.030;4.606;2024-02-04T14:58:27;12.50;99.90
43581;DHT22;29175;51.030;4.606;2024-02-04T15:00:54;12.50;99.90
43581;DHT22;29175;51.030;4.606;2024-02-04T15:03:20;12.50;99.90
43581;DHT22;29175;51.030;4.606;2024-02-04T15:05:45;12.50;99.90
43581;DHT22;29175;51.030;4.606;2024-02-04T15:08:11;12.50;99.90
43581;DHT22;29175;51.030;4.606;2024-02-04T15:10:37;12.40;99.90
43581;DHT22;29175;51.030;4.606;2024-02-04T15:13:03;12.40;99.90
43581;DHT22;29175;51.030;4.606;2024-02-04T15:15:30;12.30;99.90
43581;DHT22;29175;51.030;4.606;2024-02-04T15:17:55;12.40;99.90
43581;DHT22;29175;51.030;4.606;2024-02-04T15:20:21;12.30;99.90
43581;DHT22;29175;51.030;4.606;2024-02-04T15:22:48;12.30;99.90
43581;DHT22;29175;51.030;4.606;2024-02-04T15:25:15;12.40;99.90
43581;DHT22;29175;51.030;4.606;2024-02-04T15:30:14;12.30;99.90
43581;DHT22;29175;51.030;4.606;2024-02-04T15:32:42;12.20;99.90
43581;DHT22;29175;51.030;4.606;2024-02-04T15:35:08;12.10;99.90
43581;DHT22;29175;51.030;4.606;2024-02-04T15:37:35;12.10;99.90
43581;DHT22;29175;51.030;4.606;2024-02-04T15:40:02;12.00;99.90
43581;DHT22;29175;51.030;4.606;2024-02-04T15:42:27;12.00;99.90
43581;DHT22;29175;51.030;4.606;2024-02-04T15:44:53;12.00;99.90
43581;DHT22;29175;51.030;4.606;2024-02-04T15:47:19;11.90;99.90